CheckWX is a tool to help pilots better visualize weather data.  It is not intended as a substitute for an official pre-flight weather briefing.

05:13:03 UTC

KFMN METAR
Four Corners Regional Airport
Farmington, New Mexico, USA
Current

20 mins ago

KFMN 240453Z AUTO 04006KT 10SM CLR M09/M13 A3026 RMK AO2 SLP297 T10941128
Observed
Feb-24 @ 04:53 UTC
Wind
  • 040° at 6 KTS
Visibility
10 SM
Flight Rules
VFR
Cloud Levels
  • Clear skies
Temperature
-9°C / 16°F
Dewpoint
-13°C / 9°F
Humidity
73%
Altimeter
30.26" Hg
Pressure
1029.7 hPa
Previous

1 hour ago

KFMN 240353Z 24006KT 10SM CLR M07/M11 A3023 RMK AO2 SLP283 T10671111
Observed
Feb-24 @ 03:53 UTC
Wind
  • 240° at 6 KTS
Visibility
10 SM
Flight Rules
VFR
Cloud Levels
  • Clear skies
Temperature
-7°C / 19°F
Dewpoint
-11°C / 12°F
Humidity
73%
Altimeter
30.23" Hg
Pressure
1028.3 hPa
Previous

2 hours ago

KFMN 240253Z 25007KT 10SM CLR M06/M11 A3022 RMK AO2 SLP281 T10611111 53017
Observed
Feb-24 @ 02:53 UTC
Wind
  • 250° at 7 KTS
Visibility
10 SM
Flight Rules
VFR
Cloud Levels
  • Clear skies
Temperature
-6°C / 21°F
Dewpoint
-11°C / 12°F
Humidity
68%
Altimeter
30.22" Hg
Pressure
1028.1 hPa